sensor_id;sensor_type;location;lat;lon;timestamp;P1;durP1;ratioP1;P2;durP2;ratioP2
7025;SDS011;3554;42.132;24.786;2022-11-24T00:01:00;30.33;;;20.03;;
7025;SDS011;3554;42.132;24.786;2022-11-24T00:03:27;34.40;;;22.03;;
7025;SDS011;3554;42.132;24.786;2022-11-24T00:05:54;32.40;;;21.67;;
7025;SDS011;3554;42.132;24.786;2022-11-24T00:08:21;29.93;;;19.20;;
7025;SDS011;3554;42.132;24.786;2022-11-24T00:10:48;35.10;;;20.93;;
7025;SDS011;3554;42.132;24.786;2022-11-24T00:13:14;33.37;;;22.23;;
7025;SDS011;3554;42.132;24.786;2022-11-24T00:15:42;32.80;;;22.50;;
7025;SDS011;3554;42.132;24.786;2022-11-24T00:18:09;35.93;;;22.80;;
7025;SDS011;3554;42.132;24.786;2022-11-24T00:20:36;21.93;;;11.43;;
7025;SDS011;3554;42.132;24.786;2022-11-24T00:23:02;33.97;;;22.50;;
7025;SDS011;3554;42.132;24.786;2022-11-24T00:25:29;27.20;;;17.33;;
7025;SDS011;3554;42.132;24.786;2022-11-24T00:27:56;28.20;;;15.70;;
7025;SDS011;3554;42.132;24.786;2022-11-24T00:30:22;33.70;;;22.63;;
7025;SDS011;3554;42.132;24.786;2022-11-24T00:32:50;33.70;;;21.83;;
7025;SDS011;3554;42.132;24.786;2022-11-24T00:35:17;35.10;;;21.60;;
7025;SDS011;3554;42.132;24.786;2022-11-24T00:37:44;35.47;;;22.03;;
7025;SDS011;3554;42.132;24.786;2022-11-24T00:40:11;30.07;;;22.67;;
7025;SDS011;3554;42.132;24.786;2022-11-24T00:42:38;35.10;;;24.27;;
7025;SDS011;3554;42.132;24.786;2022-11-24T00:45:05;34.20;;;21.63;;
7025;SDS011;3554;42.132;24.786;2022-11-24T00:47:32;33.77;;;22.57;;
7025;SDS011;3554;42.132;24.786;2022-11-24T00:50:00;32.87;;;23.43;;
7025;SDS011;3554;42.132;24.786;2022-11-24T00:52:27;39.77;;;23.40;;
7025;SDS011;3554;42.132;24.786;2022-11-24T00:54:53;36.83;;;25.10;;
7025;SDS011;3554;42.132;24.786;2022-11-24T00:57:20;36.97;;;24.03;;
7025;SDS011;3554;42.132;24.786;2022-11-24T00:59:47;37.17;;;22.87;;
7025;SDS011;3554;42.132;24.786;2022-11-24T01:02:14;37.57;;;23.70;;
7025;SDS011;3554;42.132;24.786;2022-11-24T01:04:40;32.43;;;22.93;;
7025;SDS011;3554;42.132;24.786;2022-11-24T01:07:08;35.33;;;23.63;;
7025;SDS011;3554;42.132;24.786;2022-11-24T01:09:35;35.93;;;25.30;;
7025;SDS011;3554;42.132;24.786;2022-11-24T01:12:02;35.67;;;25.30;;
7025;SDS011;3554;42.132;24.786;2022-11-24T01:14:29;39.40;;;24.87;;
7025;SDS011;3554;42.132;24.786;2022-11-24T01:16:57;18.20;;;12.17;;
7025;SDS011;3554;42.132;24.786;2022-11-24T01:19:23;32.77;;;22.57;;
7025;SDS011;3554;42.132;24.786;2022-11-24T01:21:50;37.90;;;24.60;;
7025;SDS011;3554;42.132;24.786;2022-11-24T01:24:18;35.30;;;26.70;;
7025;SDS011;3554;42.132;24.786;2022-11-24T01:26:45;37.33;;;23.73;;
7025;SDS011;3554;42.132;24.786;2022-11-24T01:29:12;33.93;;;22.83;;
7025;SDS011;3554;42.132;24.786;2022-11-24T01:31:38;41.57;;;24.17;;
7025;SDS011;3554;42.132;24.786;2022-11-24T01:34:05;37.07;;;23.83;;
7025;SDS011;3554;42.132;24.786;2022-11-24T01:36:32;36.83;;;23.50;;
7025;SDS011;3554;42.132;24.786;2022-11-24T01:38:59;40.63;;;24.87;;
7025;SDS011;3554;42.132;24.786;2022-11-24T01:41:27;37.67;;;25.13;;
7025;SDS011;3554;42.132;24.786;2022-11-24T01:43:54;34.37;;;23.50;;
7025;SDS011;3554;42.132;24.786;2022-11-24T01:46:22;34.97;;;23.20;;
7025;SDS011;3554;42.132;24.786;2022-11-24T01:48:52;30.57;;;22.23;;
7025;SDS011;3554;42.132;24.786;2022-11-24T01:51:28;32.47;;;21.80;;
7025;SDS011;3554;42.132;24.786;2022-11-24T01:53:58;35.30;;;23.40;;
7025;SDS011;3554;42.132;24.786;2022-11-24T01:56:29;36.60;;;23.13;;
7025;SDS011;3554;42.132;24.786;2022-11-24T01:58:57;34.57;;;21.70;;
7025;SDS011;3554;42.132;24.786;2022-11-24T02:01:26;39.37;;;23.03;;
7025;SDS011;3554;42.132;24.786;2022-11-24T02:03:55;32.67;;;21.33;;
7025;SDS011;3554;42.132;24.786;2022-11-24T02:06:24;30.27;;;21.10;;
7025;SDS011;3554;42.132;24.786;2022-11-24T02:08:54;32.07;;;20.77;;
7025;SDS011;3554;42.132;24.786;2022-11-24T02:11:25;30.53;;;19.80;;
7025;SDS011;3554;42.132;24.786;2022-11-24T02:13:55;37.23;;;21.20;;
7025;SDS011;3554;42.132;24.786;2022-11-24T02:16:22;28.90;;;20.50;;
7025;SDS011;3554;42.132;24.786;2022-11-24T02:18:49;32.13;;;19.83;;
7025;SDS011;3554;42.132;24.786;2022-11-24T02:21:16;25.80;;;17.67;;
7025;SDS011;3554;42.132;24.786;2022-11-24T02:23:44;23.33;;;16.47;;
7025;SDS011;3554;42.132;24.786;2022-11-24T02:26:25;23.67;;;18.17;;
7025;SDS011;3554;42.132;24.786;2022-11-24T02:28:55;26.03;;;17.90;;
7025;SDS011;3554;42.132;24.786;2022-11-24T02:31:22;19.70;;;16.50;;
7025;SDS011;3554;42.132;24.786;2022-11-24T02:33:49;26.33;;;17.10;;
7025;SDS011;3554;42.132;24.786;2022-11-24T02:36:16;23.87;;;16.70;;
7025;SDS011;3554;42.132;24.786;2022-11-24T02:38:43;23.57;;;16.03;;
7025;SDS011;3554;42.132;24.786;2022-11-24T02:41:10;22.43;;;17.17;;
7025;SDS011;3554;42.132;24.786;2022-11-24T02:43:44;24.70;;;17.67;;
7025;SDS011;3554;42.132;24.786;2022-11-24T02:46:13;23.73;;;17.03;;
7025;SDS011;3554;42.132;24.786;2022-11-24T02:48:40;24.13;;;17.47;;
7025;SDS011;3554;42.132;24.786;2022-11-24T02:51:07;22.33;;;16.23;;
7025;SDS011;3554;42.132;24.786;2022-11-24T02:53:33;24.60;;;17.10;;
7025;SDS011;3554;42.132;24.786;2022-11-24T02:56:00;25.17;;;16.57;;
7025;SDS011;3554;42.132;24.786;2022-11-24T02:58:27;21.40;;;16.20;;
7025;SDS011;3554;42.132;24.786;2022-11-24T03:00:55;19.73;;;15.60;;
7025;SDS011;3554;42.132;24.786;2022-11-24T03:03:24;25.87;;;16.37;;
7025;SDS011;3554;42.132;24.786;2022-11-24T03:05:51;22.13;;;16.80;;
7025;SDS011;3554;42.132;24.786;2022-11-24T03:08:18;21.07;;;16.83;;
7025;SDS011;3554;42.132;24.786;2022-11-24T03:10:44;24.80;;;18.20;;
7025;SDS011;3554;42.132;24.786;2022-11-24T03:13:11;24.43;;;16.40;;
7025;SDS011;3554;42.132;24.786;2022-11-24T03:15:38;24.50;;;16.60;;
7025;SDS011;3554;42.132;24.786;2022-11-24T03:18:06;24.60;;;16.23;;
7025;SDS011;3554;42.132;24.786;2022-11-24T03:20:33;25.57;;;17.30;;
7025;SDS011;3554;42.132;24.786;2022-11-24T03:23:00;24.80;;;16.97;;
7025;SDS011;3554;42.132;24.786;2022-11-24T03:25:27;26.83;;;15.97;;
7025;SDS011;3554;42.132;24.786;2022-11-24T03:27:54;23.77;;;15.67;;
7025;SDS011;3554;42.132;24.786;2022-11-24T03:30:21;18.27;;;15.20;;
7025;SDS011;3554;42.132;24.786;2022-11-24T03:32:49;21.50;;;14.53;;
7025;SDS011;3554;42.132;24.786;2022-11-24T03:35:18;22.33;;;15.17;;
7025;SDS011;3554;42.132;24.786;2022-11-24T03:37:46;24.63;;;14.87;;
7025;SDS011;3554;42.132;24.786;2022-11-24T03:40:12;17.63;;;14.30;;
7025;SDS011;3554;42.132;24.786;2022-11-24T03:42:39;18.90;;;14.53;;
7025;SDS011;3554;42.132;24.786;2022-11-24T03:45:06;19.37;;;13.27;;
7025;SDS011;3554;42.132;24.786;2022-11-24T03:47:34;15.93;;;13.40;;
7025;SDS011;3554;42.132;24.786;2022-11-24T03:50:00;18.73;;;13.30;;
7025;SDS011;3554;42.132;24.786;2022-11-24T03:52:28;17.40;;;12.90;;
7025;SDS011;3554;42.132;24.786;2022-11-24T03:54:55;20.03;;;13.47;;
7025;SDS011;3554;42.132;24.786;2022-11-24T03:57:22;21.37;;;14.97;;
7025;SDS011;3554;42.132;24.786;2022-11-24T03:59:48;16.33;;;13.60;;
7025;SDS011;3554;42.132;24.786;2022-11-24T04:02:15;14.57;;;13.07;;
7025;SDS011;3554;42.132;24.786;2022-11-24T04:04:42;15.13;;;13.53;;
7025;SDS011;3554;42.132;24.786;2022-11-24T04:07:14;13.23;;;11.93;;
7025;SDS011;3554;42.132;24.786;2022-11-24T04:09:43;14.80;;;12.40;;
7025;SDS011;3554;42.132;24.786;2022-11-24T04:12:09;14.30;;;12.53;;
7025;SDS011;3554;42.132;24.786;2022-11-24T04:14:53;13.53;;;11.23;;
7025;SDS011;3554;42.132;24.786;2022-11-24T04:17:20;17.87;;;12.77;;
7025;SDS011;3554;42.132;24.786;2022-11-24T04:19:47;14.33;;;12.83;;
7025;SDS011;3554;42.132;24.786;2022-11-24T04:22:13;16.43;;;12.63;;
7025;SDS011;3554;42.132;24.786;2022-11-24T04:24:40;21.73;;;13.40;;
7025;SDS011;3554;42.132;24.786;2022-11-24T04:27:08;17.17;;;12.77;;
7025;SDS011;3554;42.132;24.786;2022-11-24T04:29:35;14.10;;;12.10;;
7025;SDS011;3554;42.132;24.786;2022-11-24T04:32:02;17.33;;;12.97;;
7025;SDS011;3554;42.132;24.786;2022-11-24T04:34:29;17.90;;;13.53;;
7025;SDS011;3554;42.132;24.786;2022-11-24T04:36:56;18.07;;;11.60;;
7025;SDS011;3554;42.132;24.786;2022-11-24T04:39:22;20.27;;;12.30;;
7025;SDS011;3554;42.132;24.786;2022-11-24T04:41:49;17.13;;;10.83;;
7025;SDS011;3554;42.132;24.786;2022-11-24T04:44:17;12.97;;;10.47;;
7025;SDS011;3554;42.132;24.786;2022-11-24T04:46:44;12.20;;;10.97;;
7025;SDS011;3554;42.132;24.786;2022-11-24T04:49:11;13.27;;;9.90;;
7025;SDS011;3554;42.132;24.786;2022-11-24T04:51:38;14.03;;;11.27;;
7025;SDS011;3554;42.132;24.786;2022-11-24T04:54:05;11.97;;;10.73;;
7025;SDS011;3554;42.132;24.786;2022-11-24T04:56:33;15.80;;;10.23;;
7025;SDS011;3554;42.132;24.786;2022-11-24T04:58:59;11.97;;;10.80;;
